sensor_id;sensor_type;location;lat;lon;timestamp;temperature;humidity
7341;DHT22;6870;50.944;6.932;2023-02-01T00:01:18;18.90;33.40
7341;DHT22;6870;50.944;6.932;2023-02-01T00:03:47;18.90;33.60
7341;DHT22;6870;50.944;6.932;2023-02-01T00:06:15;18.90;33.20
7341;DHT22;6870;50.944;6.932;2023-02-01T00:08:43;19.00;32.70
7341;DHT22;6870;50.944;6.932;2023-02-01T00:11:11;19.00;34.10
7341;DHT22;6870;50.944;6.932;2023-02-01T00:13:41;18.90;33.80
7341;DHT22;6870;50.944;6.932;2023-02-01T00:16:11;18.90;34.30
7341;DHT22;6870;50.944;6.932;2023-02-01T00:18:43;18.70;34.10
7341;DHT22;6870;50.944;6.932;2023-02-01T00:21:13;18.70;33.90
7341;DHT22;6870;50.944;6.932;2023-02-01T00:23:42;18.50;34.20
7341;DHT22;6870;50.944;6.932;2023-02-01T00:26:14;18.70;33.60
7341;DHT22;6870;50.944;6.932;2023-02-01T00:28:44;18.70;34.30
7341;DHT22;6870;50.944;6.932;2023-02-01T00:31:12;18.70;34.30
7341;DHT22;6870;50.944;6.932;2023-02-01T00:33:41;18.50;34.30
7341;DHT22;6870;50.944;6.932;2023-02-01T00:36:09;18.70;34.30
7341;DHT22;6870;50.944;6.932;2023-02-01T00:38:39;18.50;34.10
7341;DHT22;6870;50.944;6.932;2023-02-01T00:41:10;19.00;34.80
7341;DHT22;6870;50.944;6.932;2023-02-01T00:43:40;18.70;34.40
7341;DHT22;6870;50.944;6.932;2023-02-01T00:46:09;18.70;34.50
7341;DHT22;6870;50.944;6.932;2023-02-01T00:48:38;18.60;34.40
7341;DHT22;6870;50.944;6.932;2023-02-01T00:51:09;18.80;34.50
7341;DHT22;6870;50.944;6.932;2023-02-01T00:53:39;19.00;34.20
7341;DHT22;6870;50.944;6.932;2023-02-01T00:56:08;19.00;34.90
7341;DHT22;6870;50.944;6.932;2023-02-01T00:58:37;18.60;33.90
7341;DHT22;6870;50.944;6.932;2023-02-01T01:01:07;18.60;34.70
7341;DHT22;6870;50.944;6.932;2023-02-01T01:03:38;18.80;34.80
7341;DHT22;6870;50.944;6.932;2023-02-01T01:06:09;18.80;34.80
7341;DHT22;6870;50.944;6.932;2023-02-01T01:08:39;18.60;34.50
7341;DHT22;6870;50.944;6.932;2023-02-01T01:11:09;19.00;34.70
7341;DHT22;6870;50.944;6.932;2023-02-01T01:13:39;18.80;34.60
7341;DHT22;6870;50.944;6.932;2023-02-01T01:16:09;18.80;34.60
7341;DHT22;6870;50.944;6.932;2023-02-01T01:18:38;19.00;34.40
7341;DHT22;6870;50.944;6.932;2023-02-01T01:21:07;18.80;34.30
7341;DHT22;6870;50.944;6.932;2023-02-01T01:23:36;18.80;34.20
7341;DHT22;6870;50.944;6.932;2023-02-01T01:26:09;18.70;34.10
7341;DHT22;6870;50.944;6.932;2023-02-01T01:28:39;19.10;33.50
7341;DHT22;6870;50.944;6.932;2023-02-01T01:31:08;19.20;34.50
7341;DHT22;6870;50.944;6.932;2023-02-01T01:33:37;19.50;34.00
7341;DHT22;6870;50.944;6.932;2023-02-01T01:36:05;19.20;34.40
7341;DHT22;6870;50.944;6.932;2023-02-01T01:38:34;18.90;34.20
7341;DHT22;6870;50.944;6.932;2023-02-01T01:41:03;18.80;34.00
7341;DHT22;6870;50.944;6.932;2023-02-01T01:43:53;19.10;34.30
7341;DHT22;6870;50.944;6.932;2023-02-01T01:46:24;19.30;34.50
7341;DHT22;6870;50.944;6.932;2023-02-01T01:49:01;19.20;34.40
7341;DHT22;6870;50.944;6.932;2023-02-01T01:51:35;18.80;34.90
7341;DHT22;6870;50.944;6.932;2023-02-01T01:54:09;19.00;34.30
7341;DHT22;6870;50.944;6.932;2023-02-01T01:56:40;18.80;34.20
7341;DHT22;6870;50.944;6.932;2023-02-01T01:59:11;19.30;34.60
7341;DHT22;6870;50.944;6.932;2023-02-01T02:01:40;19.30;34.00
7341;DHT22;6870;50.944;6.932;2023-02-01T02:04:08;19.10;34.50
7341;DHT22;6870;50.944;6.932;2023-02-01T02:06:43;19.10;34.40
7341;DHT22;6870;50.944;6.932;2023-02-01T02:09:14;19.40;34.30
7341;DHT22;6870;50.944;6.932;2023-02-01T02:11:43;19.20;34.60
7341;DHT22;6870;50.944;6.932;2023-02-01T02:14:14;19.10;34.50
7341;DHT22;6870;50.944;6.932;2023-02-01T02:16:58;18.80;34.50
7341;DHT22;6870;50.944;6.932;2023-02-01T02:23:21;18.80;35.20
7341;DHT22;6870;50.944;6.932;2023-02-01T02:29:35;19.30;35.10
7341;DHT22;6870;50.944;6.932;2023-02-01T02:35:24;18.80;34.80
7341;DHT22;6870;50.944;6.932;2023-02-01T02:38:02;19.00;35.20
7341;DHT22;6870;50.944;6.932;2023-02-01T02:40:45;18.70;34.80
7341;DHT22;6870;50.944;6.932;2023-02-01T02:43:20;18.70;35.00
7341;DHT22;6870;50.944;6.932;2023-02-01T02:46:15;18.60;34.80
7341;DHT22;6870;50.944;6.932;2023-02-01T02:49:09;19.10;35.50
7341;DHT22;6870;50.944;6.932;2023-02-01T02:51:45;18.70;34.40
7341;DHT22;6870;50.944;6.932;2023-02-01T02:54:36;18.80;35.30
7341;DHT22;6870;50.944;6.932;2023-02-01T02:57:16;18.70;35.10
7341;DHT22;6870;50.944;6.932;2023-02-01T03:00:06;18.70;35.20
7341;DHT22;6870;50.944;6.932;2023-02-01T03:02:55;19.00;35.40
7341;DHT22;6870;50.944;6.932;2023-02-01T03:05:43;18.80;35.30
7341;DHT22;6870;50.944;6.932;2023-02-01T03:08:15;18.60;35.00
7341;DHT22;6870;50.944;6.932;2023-02-01T03:10:48;18.50;35.00
7341;DHT22;6870;50.944;6.932;2023-02-01T03:13:28;18.70;34.50
7341;DHT22;6870;50.944;6.932;2023-02-01T03:16:06;18.70;35.40
7341;DHT22;6870;50.944;6.932;2023-02-01T03:18:45;18.60;35.40
7341;DHT22;6870;50.944;6.932;2023-02-01T03:21:19;18.70;35.60
7341;DHT22;6870;50.944;6.932;2023-02-01T03:23:53;18.90;35.70
7341;DHT22;6870;50.944;6.932;2023-02-01T03:26:26;18.80;35.60
7341;DHT22;6870;50.944;6.932;2023-02-01T03:29:03;18.70;35.50
7341;DHT22;6870;50.944;6.932;2023-02-01T03:31:35;19.10;35.90
7341;DHT22;6870;50.944;6.932;2023-02-01T03:34:04;18.90;35.70
7341;DHT22;6870;50.944;6.932;2023-02-01T03:36:36;18.50;35.30
7341;DHT22;6870;50.944;6.932;2023-02-01T03:39:13;18.70;35.70
7341;DHT22;6870;50.944;6.932;2023-02-01T03:41:46;18.90;35.90
7341;DHT22;6870;50.944;6.932;2023-02-01T03:44:21;18.60;35.70
7341;DHT22;6870;50.944;6.932;2023-02-01T03:46:53;18.60;35.80
7341;DHT22;6870;50.944;6.932;2023-02-01T03:49:26;18.70;35.80
7341;DHT22;6870;50.944;6.932;2023-02-01T03:51:57;18.70;35.90
7341;DHT22;6870;50.944;6.932;2023-02-01T03:54:28;18.70;35.80
7341;DHT22;6870;50.944;6.932;2023-02-01T03:57:00;18.80;35.80
7341;DHT22;6870;50.944;6.932;2023-02-01T03:59:29;18.70;35.10
7341;DHT22;6870;50.944;6.932;2023-02-01T04:01:57;18.70;35.20
7341;DHT22;6870;50.944;6.932;2023-02-01T04:04:26;19.00;35.70
7341;DHT22;6870;50.944;6.932;2023-02-01T04:06:53;18.90;35.80
7341;DHT22;6870;50.944;6.932;2023-02-01T04:09:21;18.80;35.80
7341;DHT22;6870;50.944;6.932;2023-02-01T04:11:51;18.80;36.10
7341;DHT22;6870;50.944;6.932;2023-02-01T04:14:19;18.70;35.50
7341;DHT22;6870;50.944;6.932;2023-02-01T04:16:47;18.60;35.00
7341;DHT22;6870;50.944;6.932;2023-02-01T04:19:15;18.90;36.20
7341;DHT22;6870;50.944;6.932;2023-02-01T04:21:43;18.70;35.90
7341;DHT22;6870;50.944;6.932;2023-02-01T04:24:11;18.50;35.70
7341;DHT22;6870;50.944;6.932;2023-02-01T04:26:39;18.70;35.40
7341;DHT22;6870;50.944;6.932;2023-02-01T04:29:10;18.70;35.80
7341;DHT22;6870;50.944;6.932;2023-02-01T04:31:38;18.70;36.20
7341;DHT22;6870;50.944;6.932;2023-02-01T04:34:06;18.60;35.60
7341;DHT22;6870;50.944;6.932;2023-02-01T04:36:34;18.40;36.20
7341;DHT22;6870;50.944;6.932;2023-02-01T04:39:02;18.40;35.90
7341;DHT22;6870;50.944;6.932;2023-02-01T04:41:31;18.70;36.20
7341;DHT22;6870;50.944;6.932;2023-02-01T04:43:59;18.50;36.00
7341;DHT22;6870;50.944;6.932;2023-02-01T04:46:28;18.60;36.10
7341;DHT22;6870;50.944;6.932;2023-02-01T04:48:56;18.90;36.20
7341;DHT22;6870;50.944;6.932;2023-02-01T04:51:24;18.70;35.50
7341;DHT22;6870;50.944;6.932;2023-02-01T04:53:52;18.60;36.00
7341;DHT22;6870;50.944;6.932;2023-02-01T04:56:22;18.90;36.20
7341;DHT22;6870;50.944;6.932;2023-02-01T04:58:50;19.00;36.20
7341;DHT22;6870;50.944;6.932;2023-02-01T05:01:18;18.70;35.40
7341;DHT22;6870;50.944;6.932;2023-02-01T05:03:48;18.70;35.60
7341;DHT22;6870;50.944;6.932;2023-02-01T05:06:17;19.00;35.90
7341;DHT22;6870;50.944;6.932;2023-02-01T05:08:45;18.70;35.50
7341;DHT22;6870;50.944;6.932;2023-02-01T05:11:13;19.10;35.30
7341;DHT22;6870;50.944;6.932;2023-02-01T05:13:55;18.80;36.20
7341;DHT22;6870;50.944;6.932;2023-02-01T05:16:23;19.10;35.60
7341;DHT22;6870;50.944;6.932;2023-02-01T05:18:53;19.10;35.60
7341;DHT22;6870;50.944;6.932;2023-02-01T05:21:21;19.10;35.40
7341;DHT22;6870;50.944;6.932;2023-02-01T05:23:49;19.10;35.40
7341;DHT22;6870;50.944;6.932;2023-02-01T05:26:35;19.30;35.70
7341;DHT22;6870;50.944;6.932;2023-02-01T05:29:03;19.30;35.50
7341;DHT22;6870;50.944;6.932;2023-02-01T05:31:32;19.10;35.20
7341;DHT22;6870;50.944;6.932;2023-02-01T05:34:02;19.50;35.50
7341;DHT22;6870;50.944;6.932;2023-02-01T05:36:30;19.60;35.70
7341;DHT22;6870;50.944;6.932;2023-02-01T05:38:58;19.50;35.00
7341;DHT22;6870;50.944;6.932;2023-02-01T05:41:27;19.30;34.70
7341;DHT22;6870;50.944;6.932;2023-02-01T05:43:55;19.40;35.40
7341;DHT22;6870;50.944;6.932;2023-02-01T05:46:23;19.60;35.10
7341;DHT22;6870;50.944;6.932;2023-02-01T05:48:51;19.10;34.70
7341;DHT22;6870;50.944;6.932;2023-02-01T05:51:21;19.20;33.70
7341;DHT22;6870;50.944;6.932;2023-02-01T05:53:49;18.90;32.30
7341;DHT22;6870;50.944;6.932;2023-02-01T05:56:17;19.30;31.40
7341;DHT22;6870;50.944;6.932;2023-02-01T05:58:45;18.60;30.30
7341;DHT22;6870;50.944;6.932;2023-02-01T06:01:13;18.60;29.60
7341;DHT22;6870;50.944;6.932;2023-02-01T06:03:41;19.40;31.80
7341;DHT22;6870;50.944;6.932;2023-02-01T06:06:09;19.50;31.40
7341;DHT22;6870;50.944;6.932;2023-02-01T06:08:38;19.40;31.30
7341;DHT22;6870;50.944;6.932;2023-02-01T06:11:07;19.20;31.20
7341;DHT22;6870;50.944;6.932;2023-02-01T06:13:39;19.20;31.20
7341;DHT22;6870;50.944;6.932;2023-02-01T06:16:07;19.40;31.40
7341;DHT22;6870;50.944;6.932;2023-02-01T06:18:35;19.40;31.30
7341;DHT22;6870;50.944;6.932;2023-02-01T06:21:04;19.50;31.40
7341;DHT22;6870;50.944;6.932;2023-02-01T06:23:32;19.40;31.20
7341;DHT22;6870;50.944;6.932;2023-02-01T06:26:04;19.10;30.90
7341;DHT22;6870;50.944;6.932;2023-02-01T06:28:34;19.40;31.10
7341;DHT22;6870;50.944;6.932;2023-02-01T06:31:06;19.40;31.00
7341;DHT22;6870;50.944;6.932;2023-02-01T06:33:35;19.20;30.70
7341;DHT22;6870;50.944;6.932;2023-02-01T06:36:06;19.60;31.10
7341;DHT22;6870;50.944;6.932;2023-02-01T06:38:35;19.50;31.00
7341;DHT22;6870;50.944;6.932;2023-02-01T06:41:05;19.50;31.00
7341;DHT22;6870;50.944;6.932;2023-02-01T06:43:33;19.50;30.80
7341;DHT22;6870;50.944;6.932;2023-02-01T06:46:05;19.60;30.90
7341;DHT22;6870;50.944;6.932;2023-02-01T06:48:34;19.30;30.60
7341;DHT22;6870;50.944;6.932;2023-02-01T06:51:02;19.30;30.60
7341;DHT22;6870;50.944;6.932;2023-02-01T06:53:31;19.10;30.50
7341;DHT22;6870;50.944;6.932;2023-02-01T06:56:01;19.40;30.90
7341;DHT22;6870;50.944;6.932;2023-02-01T06:58:32;19.50;30.80
7341;DHT22;6870;50.944;6.932;2023-02-01T07:01:04;19.50;30.80
7341;DHT22;6870;50.944;6.932;2023-02-01T07:03:34;19.50;30.60
7341;DHT22;6870;50.944;6.932;2023-02-01T07:06:02;19.20;30.40
7341;DHT22;6870;50.944;6.932;2023-02-01T07:08:32;19.60;30.70
7341;DHT22;6870;50.944;6.932;2023-02-01T07:11:03;19.50;30.50
7341;DHT22;6870;50.944;6.932;2023-02-01T07:13:33;19.30;30.30
7341;DHT22;6870;50.944;6.932;2023-02-01T07:16:03;19.40;30.30
7341;DHT22;6870;50.944;6.932;2023-02-01T07:18:33;19.60;30.50
7341;DHT22;6870;50.944;6.932;2023-02-01T07:21:01;19.50;30.40
7341;DHT22;6870;50.944;6.932;2023-02-01T07:23:29;19.40;30.20
7341;DHT22;6870;50.944;6.932;2023-02-01T07:25:58;19.60;30.20
7341;DHT22;6870;50.944;6.932;2023-02-01T07:28:29;19.60;30.40
7341;DHT22;6870;50.944;6.932;2023-02-01T07:31:03;19.50;30.00
7341;DHT22;6870;50.944;6.932;2023-02-01T07:33:33;19.30;30.10
7341;DHT22;6870;50.944;6.932;2023-02-01T07:36:02;19.20;30.00
7341;DHT22;6870;50.944;6.932;2023-02-01T07:38:32;19.60;30.20
7341;DHT22;6870;50.944;6.932;2023-02-01T07:41:01;19.20;30.10
7341;DHT22;6870;50.944;6.932;2023-02-01T07:43:30;19.20;29.80
7341;DHT22;6870;50.944;6.932;2023-02-01T07:45:59;19.20;30.00
7341;DHT22;6870;50.944;6.932;2023-02-01T07:48:30;19.40;30.20
7341;DHT22;6870;50.944;6.932;2023-02-01T07:51:00;19.50;30.70
7341;DHT22;6870;50.944;6.932;2023-02-01T07:53:31;19.10;30.30
7341;DHT22;6870;50.944;6.932;2023-02-01T07:56:00;19.50;30.70
7341;DHT22;6870;50.944;6.932;2023-02-01T07:58:28;19.40;30.60
7341;DHT22;6870;50.944;6.932;2023-02-01T08:00:56;19.50;30.60
7341;DHT22;6870;50.944;6.932;2023-02-01T08:03:43;19.60;30.30
7341;DHT22;6870;50.944;6.932;2023-02-01T08:06:11;19.60;30.30
7341;DHT22;6870;50.944;6.932;2023-02-01T08:08:39;19.70;30.30
7341;DHT22;6870;50.944;6.932;2023-02-01T08:11:07;19.70;30.30
7341;DHT22;6870;50.944;6.932;2023-02-01T08:13:35;19.20;30.00
7341;DHT22;6870;50.944;6.932;2023-02-01T08:16:05;19.60;30.10
7341;DHT22;6870;50.944;6.932;2023-02-01T08:18:36;19.60;30.00
7341;DHT22;6870;50.944;6.932;2023-02-01T08:21:08;19.30;29.90
7341;DHT22;6870;50.944;6.932;2023-02-01T08:23:38;19.50;30.00
7341;DHT22;6870;50.944;6.932;2023-02-01T08:26:09;19.50;30.20
7341;DHT22;6870;50.944;6.932;2023-02-01T08:28:40;19.20;30.00
7341;DHT22;6870;50.944;6.932;2023-02-01T08:31:10;19.60;30.30
7341;DHT22;6870;50.944;6.932;2023-02-01T08:33:42;19.30;29.90
7341;DHT22;6870;50.944;6.932;2023-02-01T08:36:12;19.30;29.90
7341;DHT22;6870;50.944;6.932;2023-02-01T08:38:41;19.30;30.00
7341;DHT22;6870;50.944;6.932;2023-02-01T08:41:10;19.20;29.90
7341;DHT22;6870;50.944;6.932;2023-02-01T08:43:40;19.40;30.00
7341;DHT22;6870;50.944;6.932;2023-02-01T08:46:09;19.50;30.00
7341;DHT22;6870;50.944;6.932;2023-02-01T08:48:38;19.30;29.70
7341;DHT22;6870;50.944;6.932;2023-02-01T08:51:08;19.30;29.90
7341;DHT22;6870;50.944;6.932;2023-02-01T08:53:40;19.40;29.80
7341;DHT22;6870;50.944;6.932;2023-02-01T08:56:11;19.60;28.60
7341;DHT22;6870;50.944;6.932;2023-02-01T08:58:40;19.00;27.30
7341;DHT22;6870;50.944;6.932;2023-02-01T09:01:10;18.90;28.40
7341;DHT22;6870;50.944;6.932;2023-02-01T09:03:40;18.30;26.50
7341;DHT22;6870;50.944;6.932;2023-02-01T09:06:10;18.90;27.50
7341;DHT22;6870;50.944;6.932;2023-02-01T09:08:41;19.00;27.10
7341;DHT22;6870;50.944;6.932;2023-02-01T09:11:13;19.00;27.00
7341;DHT22;6870;50.944;6.932;2023-02-01T09:13:42;18.80;26.90
7341;DHT22;6870;50.944;6.932;2023-02-01T09:16:10;19.50;27.50
7341;DHT22;6870;50.944;6.932;2023-02-01T09:18:38;19.70;27.60
7341;DHT22;6870;50.944;6.932;2023-02-01T09:21:26;19.50;27.30
7341;DHT22;6870;50.944;6.932;2023-02-01T09:23:56;20.00;27.20
7341;DHT22;6870;50.944;6.932;2023-02-01T09:26:24;19.90;27.00
7341;DHT22;6870;50.944;6.932;2023-02-01T09:28:58;19.80;26.80
7341;DHT22;6870;50.944;6.932;2023-02-01T09:31:26;20.00;27.10
7341;DHT22;6870;50.944;6.932;2023-02-01T09:33:55;20.10;27.10
7341;DHT22;6870;50.944;6.932;2023-02-01T09:36:23;20.10;27.40
7341;DHT22;6870;50.944;6.932;2023-02-01T09:38:52;20.50;27.00
7341;DHT22;6870;50.944;6.932;2023-02-01T09:41:30;20.30;27.10
7341;DHT22;6870;50.944;6.932;2023-02-01T09:44:11;20.40;27.00
7341;DHT22;6870;50.944;6.932;2023-02-01T09:46:45;20.30;26.30
7341;DHT22;6870;50.944;6.932;2023-02-01T09:49:16;20.60;26.90
7341;DHT22;6870;50.944;6.932;2023-02-01T09:51:49;20.30;26.90
7341;DHT22;6870;50.944;6.932;2023-02-01T09:54:21;20.30;26.60
7341;DHT22;6870;50.944;6.932;2023-02-01T09:56:56;20.50;26.60
7341;DHT22;6870;50.944;6.932;2023-02-01T09:59:32;20.70;26.30
7341;DHT22;6870;50.944;6.932;2023-02-01T10:02:08;20.60;26.70
7341;DHT22;6870;50.944;6.932;2023-02-01T10:04:39;20.50;26.50
7341;DHT22;6870;50.944;6.932;2023-02-01T10:07:22;20.30;26.60
7341;DHT22;6870;50.944;6.932;2023-02-01T10:10:00;20.50;26.70
7341;DHT22;6870;50.944;6.932;2023-02-01T10:12:53;20.20;26.60
7341;DHT22;6870;50.944;6.932;2023-02-01T10:15:40;20.20;26.60
7341;DHT22;6870;50.944;6.932;2023-02-01T10:18:37;20.60;26.70
7341;DHT22;6870;50.944;6.932;2023-02-01T10:21:21;20.60;26.10
7341;DHT22;6870;50.944;6.932;2023-02-01T10:24:10;20.70;26.00
7341;DHT22;6870;50.944;6.932;2023-02-01T10:26:45;20.50;25.90
7341;DHT22;6870;50.944;6.932;2023-02-01T10:29:21;21.20;26.30
7341;DHT22;6870;50.944;6.932;2023-02-01T10:31:50;20.90;25.80
7341;DHT22;6870;50.944;6.932;2023-02-01T10:34:21;20.90;25.50
7341;DHT22;6870;50.944;6.932;2023-02-01T10:36:54;21.10;24.90
7341;DHT22;6870;50.944;6.932;2023-02-01T10:39:23;21.50;25.60
7341;DHT22;6870;50.944;6.932;2023-02-01T10:41:52;21.30;25.30
7341;DHT22;6870;50.944;6.932;2023-02-01T10:44:24;21.40;25.20
7341;DHT22;6870;50.944;6.932;2023-02-01T10:46:54;21.50;25.20
7341;DHT22;6870;50.944;6.932;2023-02-01T10:49:26;21.50;25.00
7341;DHT22;6870;50.944;6.932;2023-02-01T10:52:05;21.60;25.10
7341;DHT22;6870;50.944;6.932;2023-02-01T10:54:38;21.70;25.00
7341;DHT22;6870;50.944;6.932;2023-02-01T10:57:08;21.40;24.70
7341;DHT22;6870;50.944;6.932;2023-02-01T10:59:37;21.60;24.60
7341;DHT22;6870;50.944;6.932;2023-02-01T11:02:19;21.60;24.60
7341;DHT22;6870;50.944;6.932;2023-02-01T11:04:48;21.60;24.80
7341;DHT22;6870;50.944;6.932;2023-02-01T11:07:22;21.50;24.60
7341;DHT22;6870;50.944;6.932;2023-02-01T11:09:53;21.40;24.50
7341;DHT22;6870;50.944;6.932;2023-02-01T11:12:28;21.60;24.60
7341;DHT22;6870;50.944;6.932;2023-02-01T11:15:02;21.50;24.60
7341;DHT22;6870;50.944;6.932;2023-02-01T11:17:43;21.40;24.70
7341;DHT22;6870;50.944;6.932;2023-02-01T11:20:14;21.60;24.90
7341;DHT22;6870;50.944;6.932;2023-02-01T11:22:48;21.60;24.90
7341;DHT22;6870;50.944;6.932;2023-02-01T11:25:21;21.30;24.30
7341;DHT22;6870;50.944;6.932;2023-02-01T11:27:53;21.40;24.90
7341;DHT22;6870;50.944;6.932;2023-02-01T11:30:30;21.50;25.10
7341;DHT22;6870;50.944;6.932;2023-02-01T11:33:00;21.30;24.20
7341;DHT22;6870;50.944;6.932;2023-02-01T11:35:32;21.40;24.90
7341;DHT22;6870;50.944;6.932;2023-02-01T11:38:11;21.50;25.10
7341;DHT22;6870;50.944;6.932;2023-02-01T11:40:44;21.50;25.10
7341;DHT22;6870;50.944;6.932;2023-02-01T11:43:17;21.60;25.30
7341;DHT22;6870;50.944;6.932;2023-02-01T11:45:56;21.00;24.20
7341;DHT22;6870;50.944;6.932;2023-02-01T11:48:26;21.50;25.20
7341;DHT22;6870;50.944;6.932;2023-02-01T11:51:04;21.40;25.10
7341;DHT22;6870;50.944;6.932;2023-02-01T11:53:52;21.30;25.10
7341;DHT22;6870;50.944;6.932;2023-02-01T11:56:32;21.10;25.00
7341;DHT22;6870;50.944;6.932;2023-02-01T11:59:19;21.40;25.30
7341;DHT22;6870;50.944;6.932;2023-02-01T12:02:11;21.20;25.30
7341;DHT22;6870;50.944;6.932;2023-02-01T12:05:12;21.10;25.20
7341;DHT22;6870;50.944;6.932;2023-02-01T12:07:58;21.30;25.80
7341;DHT22;6870;50.944;6.932;2023-02-01T12:10:39;20.70;25.50
7341;DHT22;6870;50.944;6.932;2023-02-01T12:13:24;20.90;26.00
7341;DHT22;6870;50.944;6.932;2023-02-01T12:16:15;20.70;25.60
7341;DHT22;6870;50.944;6.932;2023-02-01T12:19:06;20.60;26.20
7341;DHT22;6870;50.944;6.932;2023-02-01T12:21:57;20.50;26.40
7341;DHT22;6870;50.944;6.932;2023-02-01T12:27:56;20.60;26.80
7341;DHT22;6870;50.944;6.932;2023-02-01T12:30:54;20.60;27.00
7341;DHT22;6870;50.944;6.932;2023-02-01T12:33:41;20.30;26.80
7341;DHT22;6870;50.944;6.932;2023-02-01T12:36:24;20.30;27.00
7341;DHT22;6870;50.944;6.932;2023-02-01T12:39:04;20.30;27.20
7341;DHT22;6870;50.944;6.932;2023-02-01T12:44:37;20.10;27.20
7341;DHT22;6870;50.944;6.932;2023-02-01T12:47:15;20.30;27.30
7341;DHT22;6870;50.944;6.932;2023-02-01T12:49:51;20.30;27.40
7341;DHT22;6870;50.944;6.932;2023-02-01T12:52:28;20.10;27.20
7341;DHT22;6870;50.944;6.932;2023-02-01T12:55:07;20.20;27.20
7341;DHT22;6870;50.944;6.932;2023-02-01T12:57:52;19.80;27.00
7341;DHT22;6870;50.944;6.932;2023-02-01T13:00:29;20.20;27.30
7341;DHT22;6870;50.944;6.932;2023-02-01T13:03:05;19.80;27.50
7341;DHT22;6870;50.944;6.932;2023-02-01T13:05:45;19.60;27.30
7341;DHT22;6870;50.944;6.932;2023-02-01T13:08:22;20.30;27.70
7341;DHT22;6870;50.944;6.932;2023-02-01T13:10:56;20.20;27.40
7341;DHT22;6870;50.944;6.932;2023-02-01T13:13:32;20.20;27.00
7341;DHT22;6870;50.944;6.932;2023-02-01T13:16:14;20.20;26.90
7341;DHT22;6870;50.944;6.932;2023-02-01T13:18:47;20.50;27.70
7341;DHT22;6870;50.944;6.932;2023-02-01T13:21:21;20.10;27.40
7341;DHT22;6870;50.944;6.932;2023-02-01T13:23:54;20.30;27.60
7341;DHT22;6870;50.944;6.932;2023-02-01T13:26:22;20.30;27.00
7341;DHT22;6870;50.944;6.932;2023-02-01T13:28:51;20.30;27.00
7341;DHT22;6870;50.944;6.932;2023-02-01T13:34:56;20.40;27.70
7341;DHT22;6870;50.944;6.932;2023-02-01T13:37:42;20.20;27.50
7341;DHT22;6870;50.944;6.932;2023-02-01T13:40:36;20.10;27.40
7341;DHT22;6870;50.944;6.932;2023-02-01T13:43:11;20.00;27.30
7341;DHT22;6870;50.944;6.932;2023-02-01T13:45:47;20.20;27.50
7341;DHT22;6870;50.944;6.932;2023-02-01T13:48:22;19.90;27.30
7341;DHT22;6870;50.944;6.932;2023-02-01T13:50:54;20.30;27.20
7341;DHT22;6870;50.944;6.932;2023-02-01T13:53:27;20.10;27.80
7341;DHT22;6870;50.944;6.932;2023-02-01T13:56:03;20.20;27.70
7341;DHT22;6870;50.944;6.932;2023-02-01T13:58:35;20.20;27.60
7341;DHT22;6870;50.944;6.932;2023-02-01T14:07:20;20.10;27.40
7341;DHT22;6870;50.944;6.932;2023-02-01T14:09:49;20.20;27.50
7341;DHT22;6870;50.944;6.932;2023-02-01T14:12:45;20.20;27.40
7341;DHT22;6870;50.944;6.932;2023-02-01T14:15:25;19.90;27.10
7341;DHT22;6870;50.944;6.932;2023-02-01T14:17:55;20.20;27.40
7341;DHT22;6870;50.944;6.932;2023-02-01T14:20:44;19.90;27.20
7341;DHT22;6870;50.944;6.932;2023-02-01T14:23:29;19.80;27.30
7341;DHT22;6870;50.944;6.932;2023-02-01T14:26:10;19.80;27.00
7341;DHT22;6870;50.944;6.932;2023-02-01T14:28:45;19.50;27.60
7341;DHT22;6870;50.944;6.932;2023-02-01T14:34:04;19.70;27.60
7341;DHT22;6870;50.944;6.932;2023-02-01T14:36:43;20.10;27.90
7341;DHT22;6870;50.944;6.932;2023-02-01T14:39:34;20.20;27.90
7341;DHT22;6870;50.944;6.932;2023-02-01T14:42:21;19.60;27.50
7341;DHT22;6870;50.944;6.932;2023-02-01T14:44:55;20.20;27.90
7341;DHT22;6870;50.944;6.932;2023-02-01T14:47:30;19.70;27.50
7341;DHT22;6870;50.944;6.932;2023-02-01T14:50:15;20.10;28.00
7341;DHT22;6870;50.944;6.932;2023-02-01T14:52:50;20.10;27.90
7341;DHT22;6870;50.944;6.932;2023-02-01T14:55:30;20.20;27.80
7341;DHT22;6870;50.944;6.932;2023-02-01T14:58:04;19.70;27.70
7341;DHT22;6870;50.944;6.932;2023-02-01T15:00:35;19.90;27.80
7341;DHT22;6870;50.944;6.932;2023-02-01T15:06:21;20.20;28.20
7341;DHT22;6870;50.944;6.932;2023-02-01T15:08:55;20.10;27.90
7341;DHT22;6870;50.944;6.932;2023-02-01T15:11:25;20.00;27.80
7341;DHT22;6870;50.944;6.932;2023-02-01T15:13:53;20.10;27.80
7341;DHT22;6870;50.944;6.932;2023-02-01T15:16:25;19.70;27.40
7341;DHT22;6870;50.944;6.932;2023-02-01T15:19:12;19.50;27.70
7341;DHT22;6870;50.944;6.932;2023-02-01T15:21:43;19.50;27.90
7341;DHT22;6870;50.944;6.932;2023-02-01T15:24:14;19.60;28.10
7341;DHT22;6870;50.944;6.932;2023-02-01T15:26:42;19.50;28.00
7341;DHT22;6870;50.944;6.932;2023-02-01T15:29:12;19.50;28.00
7341;DHT22;6870;50.944;6.932;2023-02-01T15:31:43;19.60;28.10
7341;DHT22;6870;50.944;6.932;2023-02-01T15:34:13;19.50;28.10
7341;DHT22;6870;50.944;6.932;2023-02-01T15:36:43;19.40;28.10
7341;DHT22;6870;50.944;6.932;2023-02-01T15:39:28;19.60;28.30
7341;DHT22;6870;50.944;6.932;2023-02-01T15:42:01;19.30;28.10
7341;DHT22;6870;50.944;6.932;2023-02-01T15:44:39;19.50;28.10
7341;DHT22;6870;50.944;6.932;2023-02-01T15:47:15;19.50;28.30
7341;DHT22;6870;50.944;6.932;2023-02-01T15:49:46;19.40;28.30
7341;DHT22;6870;50.944;6.932;2023-02-01T15:52:23;19.40;28.10
7341;DHT22;6870;50.944;6.932;2023-02-01T15:54:58;19.60;28.40
7341;DHT22;6870;50.944;6.932;2023-02-01T15:57:30;19.50;28.50
7341;DHT22;6870;50.944;6.932;2023-02-01T16:00:03;19.60;28.10
7341;DHT22;6870;50.944;6.932;2023-02-01T16:02:36;19.50;28.50
7341;DHT22;6870;50.944;6.932;2023-02-01T16:05:31;19.40;28.40
7341;DHT22;6870;50.944;6.932;2023-02-01T16:08:05;19.60;28.20
7341;DHT22;6870;50.944;6.932;2023-02-01T16:10:40;19.50;28.50
7341;DHT22;6870;50.944;6.932;2023-02-01T16:13:10;19.40;28.30
7341;DHT22;6870;50.944;6.932;2023-02-01T16:15:38;19.60;28.60
7341;DHT22;6870;50.944;6.932;2023-02-01T16:18:08;19.40;28.00
7341;DHT22;6870;50.944;6.932;2023-02-01T16:20:38;19.40;28.70
7341;DHT22;6870;50.944;6.932;2023-02-01T16:23:09;19.50;28.40
7341;DHT22;6870;50.944;6.932;2023-02-01T16:25:41;19.80;28.20
7341;DHT22;6870;50.944;6.932;2023-02-01T16:28:49;19.60;28.10
7341;DHT22;6870;50.944;6.932;2023-02-01T16:31:18;19.70;28.40
7341;DHT22;6870;50.944;6.932;2023-02-01T16:34:16;20.10;28.30
7341;DHT22;6870;50.944;6.932;2023-02-01T16:36:47;20.10;28.70
7341;DHT22;6870;50.944;6.932;2023-02-01T16:39:19;19.80;28.60
7341;DHT22;6870;50.944;6.932;2023-02-01T16:41:55;19.70;28.60
7341;DHT22;6870;50.944;6.932;2023-02-01T16:44:27;19.80;28.40
7341;DHT22;6870;50.944;6.932;2023-02-01T16:47:01;19.90;28.50
7341;DHT22;6870;50.944;6.932;2023-02-01T16:49:31;19.70;28.40
7341;DHT22;6870;50.944;6.932;2023-02-01T16:52:00;20.20;28.70
7341;DHT22;6870;50.944;6.932;2023-02-01T16:54:28;20.00;28.40
7341;DHT22;6870;50.944;6.932;2023-02-01T16:56:57;19.70;28.50
7341;DHT22;6870;50.944;6.932;2023-02-01T16:59:26;19.70;28.80
7341;DHT22;6870;50.944;6.932;2023-02-01T17:01:54;20.20;28.70
7341;DHT22;6870;50.944;6.932;2023-02-01T17:04:26;19.90;28.70
7341;DHT22;6870;50.944;6.932;2023-02-01T17:06:56;20.10;28.50
7341;DHT22;6870;50.944;6.932;2023-02-01T17:09:25;19.70;28.50
7341;DHT22;6870;50.944;6.932;2023-02-01T17:12:25;19.90;28.60
7341;DHT22;6870;50.944;6.932;2023-02-01T17:14:56;19.80;28.60